sensor_id;sensor_type;location;lat;lon;timestamp;temperature;humidity
15481;DHT22;7842;50.904;6.670;2022-11-27T00:01:36;4.90;99.90
15481;DHT22;7842;50.904;6.670;2022-11-27T00:04:03;5.00;99.90
15481;DHT22;7842;50.904;6.670;2022-11-27T00:06:30;4.90;99.90
15481;DHT22;7842;50.904;6.670;2022-11-27T00:08:56;4.90;99.90
15481;DHT22;7842;50.904;6.670;2022-11-27T00:11:23;5.00;99.90
15481;DHT22;7842;50.904;6.670;2022-11-27T00:13:50;5.00;99.90
15481;DHT22;7842;50.904;6.670;2022-11-27T00:16:16;4.90;99.90
15481;DHT22;7842;50.904;6.670;2022-11-27T00:18:42;5.00;99.90
15481;DHT22;7842;50.904;6.670;2022-11-27T00:21:13;5.00;99.90
15481;DHT22;7842;50.904;6.670;2022-11-27T00:23:39;5.00;99.90
15481;DHT22;7842;50.904;6.670;2022-11-27T00:26:05;5.10;99.90
15481;DHT22;7842;50.904;6.670;2022-11-27T00:28:32;5.10;99.90
15481;DHT22;7842;50.904;6.670;2022-11-27T00:30:59;5.10;99.90
15481;DHT22;7842;50.904;6.670;2022-11-27T00:33:25;5.10;99.90
15481;DHT22;7842;50.904;6.670;2022-11-27T00:35:50;5.10;99.90
15481;DHT22;7842;50.904;6.670;2022-11-27T00:38:16;5.10;99.90
15481;DHT22;7842;50.904;6.670;2022-11-27T00:40:41;5.00;99.90
15481;DHT22;7842;50.904;6.670;2022-11-27T00:43:07;5.00;99.90
15481;DHT22;7842;50.904;6.670;2022-11-27T00:45:32;5.00;99.90
15481;DHT22;7842;50.904;6.670;2022-11-27T00:47:58;5.00;99.90
15481;DHT22;7842;50.904;6.670;2022-11-27T00:50:24;5.00;99.90
15481;DHT22;7842;50.904;6.670;2022-11-27T00:52:49;5.00;99.90
15481;DHT22;7842;50.904;6.670;2022-11-27T00:55:15;5.00;99.90
15481;DHT22;7842;50.904;6.670;2022-11-27T00:57:40;5.00;99.90
15481;DHT22;7842;50.904;6.670;2022-11-27T01:00:06;4.90;99.90
15481;DHT22;7842;50.904;6.670;2022-11-27T01:02:32;4.90;99.90
15481;DHT22;7842;50.904;6.670;2022-11-27T01:04:58;4.90;99.90
15481;DHT22;7842;50.904;6.670;2022-11-27T01:07:25;4.90;99.90
15481;DHT22;7842;50.904;6.670;2022-11-27T01:09:50;4.90;99.90
15481;DHT22;7842;50.904;6.670;2022-11-27T01:12:16;4.90;99.90
15481;DHT22;7842;50.904;6.670;2022-11-27T01:14:41;4.90;99.90
15481;DHT22;7842;50.904;6.670;2022-11-27T01:17:07;4.90;99.90
15481;DHT22;7842;50.904;6.670;2022-11-27T01:19:33;4.90;99.90
15481;DHT22;7842;50.904;6.670;2022-11-27T01:21:58;4.90;99.90
15481;DHT22;7842;50.904;6.670;2022-11-27T01:24:24;5.00;99.90
15481;DHT22;7842;50.904;6.670;2022-11-27T01:26:49;5.00;99.90
15481;DHT22;7842;50.904;6.670;2022-11-27T01:29:15;5.00;99.90
15481;DHT22;7842;50.904;6.670;2022-11-27T01:31:40;5.00;99.90
15481;DHT22;7842;50.904;6.670;2022-11-27T01:34:10;5.00;99.90
15481;DHT22;7842;50.904;6.670;2022-11-27T01:36:37;5.00;99.90
15481;DHT22;7842;50.904;6.670;2022-11-27T01:39:03;5.00;99.90
15481;DHT22;7842;50.904;6.670;2022-11-27T01:41:35;5.00;99.90
15481;DHT22;7842;50.904;6.670;2022-11-27T01:44:48;5.00;99.90
15481;DHT22;7842;50.904;6.670;2022-11-27T01:49:32;5.00;99.90
15481;DHT22;7842;50.904;6.670;2022-11-27T01:52:02;5.00;99.90
15481;DHT22;7842;50.904;6.670;2022-11-27T01:54:36;5.00;99.90
15481;DHT22;7842;50.904;6.670;2022-11-27T01:57:08;5.00;99.90
15481;DHT22;7842;50.904;6.670;2022-11-27T01:59:34;4.90;99.90
15481;DHT22;7842;50.904;6.670;2022-11-27T02:02:00;4.90;99.90
15481;DHT22;7842;50.904;6.670;2022-11-27T02:04:27;4.90;99.90
15481;DHT22;7842;50.904;6.670;2022-11-27T02:06:54;4.90;99.90
15481;DHT22;7842;50.904;6.670;2022-11-27T02:09:20;4.90;99.90
15481;DHT22;7842;50.904;6.670;2022-11-27T02:14:29;4.80;99.90
15481;DHT22;7842;50.904;6.670;2022-11-27T02:25:31;4.80;99.90
15481;DHT22;7842;50.904;6.670;2022-11-27T02:30:44;4.70;99.90
15481;DHT22;7842;50.904;6.670;2022-11-27T02:33:11;4.70;99.90
15481;DHT22;7842;50.904;6.670;2022-11-27T02:35:59;4.70;99.90
15481;DHT22;7842;50.904;6.670;2022-11-27T02:38:48;4.70;99.90
15481;DHT22;7842;50.904;6.670;2022-11-27T02:41:32;4.80;99.90
15481;DHT22;7842;50.904;6.670;2022-11-27T02:44:02;4.70;99.90
15481;DHT22;7842;50.904;6.670;2022-11-27T02:46:29;4.70;99.90
15481;DHT22;7842;50.904;6.670;2022-11-27T02:49:00;4.70;99.90
15481;DHT22;7842;50.904;6.670;2022-11-27T02:51:50;4.60;99.90
15481;DHT22;7842;50.904;6.670;2022-11-27T02:54:19;4.70;99.90
15481;DHT22;7842;50.904;6.670;2022-11-27T02:56:47;4.60;99.90
15481;DHT22;7842;50.904;6.670;2022-11-27T02:59:15;4.60;99.90
15481;DHT22;7842;50.904;6.670;2022-11-27T03:01:47;4.60;99.90
15481;DHT22;7842;50.904;6.670;2022-11-27T03:04:19;4.60;99.90
15481;DHT22;7842;50.904;6.670;2022-11-27T03:06:53;4.60;99.90
15481;DHT22;7842;50.904;6.670;2022-11-27T03:09:37;4.60;99.90
15481;DHT22;7842;50.904;6.670;2022-11-27T03:12:06;4.60;99.90
15481;DHT22;7842;50.904;6.670;2022-11-27T03:14:33;4.60;99.90
15481;DHT22;7842;50.904;6.670;2022-11-27T03:17:33;4.50;99.90
15481;DHT22;7842;50.904;6.670;2022-11-27T03:22:45;4.60;99.90
15481;DHT22;7842;50.904;6.670;2022-11-27T03:25:10;4.60;99.90
15481;DHT22;7842;50.904;6.670;2022-11-27T03:27:43;4.60;99.90
15481;DHT22;7842;50.904;6.670;2022-11-27T03:30:11;4.60;99.90
15481;DHT22;7842;50.904;6.670;2022-11-27T03:32:39;4.60;99.90
15481;DHT22;7842;50.904;6.670;2022-11-27T03:35:07;4.70;99.90
15481;DHT22;7842;50.904;6.670;2022-11-27T03:37:34;4.70;99.90
15481;DHT22;7842;50.904;6.670;2022-11-27T03:40:00;4.70;99.90
15481;DHT22;7842;50.904;6.670;2022-11-27T03:46:05;4.70;99.90
15481;DHT22;7842;50.904;6.670;2022-11-27T03:48:39;4.70;99.90
15481;DHT22;7842;50.904;6.670;2022-11-27T03:51:38;4.80;99.90
15481;DHT22;7842;50.904;6.670;2022-11-27T03:57:29;4.80;99.90
15481;DHT22;7842;50.904;6.670;2022-11-27T03:59:58;4.80;99.90
15481;DHT22;7842;50.904;6.670;2022-11-27T04:02:55;4.90;99.90
15481;DHT22;7842;50.904;6.670;2022-11-27T04:05:20;4.90;99.90
15481;DHT22;7842;50.904;6.670;2022-11-27T04:07:46;4.90;99.90
15481;DHT22;7842;50.904;6.670;2022-11-27T04:10:12;4.90;99.90
15481;DHT22;7842;50.904;6.670;2022-11-27T04:12:37;4.90;99.90
15481;DHT22;7842;50.904;6.670;2022-11-27T04:15:04;4.90;99.90
15481;DHT22;7842;50.904;6.670;2022-11-27T04:17:31;4.90;99.90
15481;DHT22;7842;50.904;6.670;2022-11-27T04:19:57;5.00;99.90
15481;DHT22;7842;50.904;6.670;2022-11-27T04:22:22;5.00;99.90
15481;DHT22;7842;50.904;6.670;2022-11-27T04:24:48;5.00;99.90
15481;DHT22;7842;50.904;6.670;2022-11-27T04:27:14;5.00;99.90
15481;DHT22;7842;50.904;6.670;2022-11-27T04:29:39;5.00;99.90
15481;DHT22;7842;50.904;6.670;2022-11-27T04:32:05;5.00;99.90
15481;DHT22;7842;50.904;6.670;2022-11-27T04:34:31;5.00;99.90
15481;DHT22;7842;50.904;6.670;2022-11-27T04:36:57;5.00;99.90
15481;DHT22;7842;50.904;6.670;2022-11-27T04:39:23;5.00;99.90
15481;DHT22;7842;50.904;6.670;2022-11-27T04:41:48;5.00;99.90
15481;DHT22;7842;50.904;6.670;2022-11-27T04:44:14;5.00;99.90
15481;DHT22;7842;50.904;6.670;2022-11-27T04:46:40;5.00;99.90
15481;DHT22;7842;50.904;6.670;2022-11-27T04:49:05;5.00;99.90
15481;DHT22;7842;50.904;6.670;2022-11-27T04:51:31;5.00;99.90
15481;DHT22;7842;50.904;6.670;2022-11-27T04:53:57;5.00;99.90
15481;DHT22;7842;50.904;6.670;2022-11-27T04:56:22;5.00;99.90
15481;DHT22;7842;50.904;6.670;2022-11-27T04:58:48;5.00;99.90
15481;DHT22;7842;50.904;6.670;2022-11-27T05:01:13;5.00;99.90
15481;DHT22;7842;50.904;6.670;2022-11-27T05:03:40;5.00;99.90
15481;DHT22;7842;50.904;6.670;2022-11-27T05:06:05;5.00;99.90
15481;DHT22;7842;50.904;6.670;2022-11-27T05:08:31;5.00;99.90
15481;DHT22;7842;50.904;6.670;2022-11-27T05:13:27;5.10;99.90
15481;DHT22;7842;50.904;6.670;2022-11-27T05:15:53;5.10;99.90
15481;DHT22;7842;50.904;6.670;2022-11-27T05:18:19;5.00;99.90
15481;DHT22;7842;50.904;6.670;2022-11-27T05:20:44;5.00;99.90
15481;DHT22;7842;50.904;6.670;2022-11-27T05:23:10;5.00;99.90
15481;DHT22;7842;50.904;6.670;2022-11-27T05:25:36;5.10;99.90
15481;DHT22;7842;50.904;6.670;2022-11-27T05:28:01;5.10;99.90
15481;DHT22;7842;50.904;6.670;2022-11-27T05:30:27;5.10;99.90
15481;DHT22;7842;50.904;6.670;2022-11-27T05:32:52;5.10;99.90
15481;DHT22;7842;50.904;6.670;2022-11-27T05:35:18;5.00;99.90
15481;DHT22;7842;50.904;6.670;2022-11-27T05:37:44;5.10;99.90
15481;DHT22;7842;50.904;6.670;2022-11-27T05:40:09;5.10;99.90
15481;DHT22;7842;50.904;6.670;2022-11-27T05:42:35;5.10;99.90
15481;DHT22;7842;50.904;6.670;2022-11-27T05:45:00;5.10;99.90
15481;DHT22;7842;50.904;6.670;2022-11-27T05:47:26;5.10;99.90
15481;DHT22;7842;50.904;6.670;2022-11-27T05:49:52;5.10;99.90
15481;DHT22;7842;50.904;6.670;2022-11-27T05:52:17;5.10;99.90
15481;DHT22;7842;50.904;6.670;2022-11-27T05:54:43;5.10;99.90
15481;DHT22;7842;50.904;6.670;2022-11-27T05:57:08;5.10;99.90
15481;DHT22;7842;50.904;6.670;2022-11-27T05:59:34;5.10;99.90
15481;DHT22;7842;50.904;6.670;2022-11-27T06:01:59;5.10;99.90
15481;DHT22;7842;50.904;6.670;2022-11-27T06:04:25;5.10;99.90
15481;DHT22;7842;50.904;6.670;2022-11-27T06:06:50;5.10;99.90
15481;DHT22;7842;50.904;6.670;2022-11-27T06:09:16;5.10;99.90
15481;DHT22;7842;50.904;6.670;2022-11-27T06:11:41;5.10;99.90
15481;DHT22;7842;50.904;6.670;2022-11-27T06:14:08;5.20;99.90
15481;DHT22;7842;50.904;6.670;2022-11-27T06:16:34;5.20;99.90
15481;DHT22;7842;50.904;6.670;2022-11-27T06:18:59;5.20;99.90
15481;DHT22;7842;50.904;6.670;2022-11-27T06:21:25;5.20;99.90
15481;DHT22;7842;50.904;6.670;2022-11-27T06:23:55;5.20;99.90
15481;DHT22;7842;50.904;6.670;2022-11-27T06:26:23;5.20;99.90
15481;DHT22;7842;50.904;6.670;2022-11-27T06:28:49;5.30;99.90
15481;DHT22;7842;50.904;6.670;2022-11-27T06:31:21;5.30;99.90
15481;DHT22;7842;50.904;6.670;2022-11-27T06:33:48;5.30;99.90
15481;DHT22;7842;50.904;6.670;2022-11-27T06:36:14;5.30;99.90
15481;DHT22;7842;50.904;6.670;2022-11-27T06:38:41;5.30;99.90
15481;DHT22;7842;50.904;6.670;2022-11-27T06:41:15;5.30;99.90
15481;DHT22;7842;50.904;6.670;2022-11-27T06:43:41;5.30;99.90
15481;DHT22;7842;50.904;6.670;2022-11-27T06:46:13;5.30;99.90
15481;DHT22;7842;50.904;6.670;2022-11-27T06:48:40;5.20;99.90
15481;DHT22;7842;50.904;6.670;2022-11-27T06:51:08;5.30;99.90
15481;DHT22;7842;50.904;6.670;2022-11-27T06:53:35;5.30;99.90
15481;DHT22;7842;50.904;6.670;2022-11-27T06:56:03;5.30;99.90
15481;DHT22;7842;50.904;6.670;2022-11-27T06:58:28;5.30;99.90
15481;DHT22;7842;50.904;6.670;2022-11-27T07:00:58;5.40;99.90
15481;DHT22;7842;50.904;6.670;2022-11-27T07:03:24;5.40;99.90
15481;DHT22;7842;50.904;6.670;2022-11-27T07:05:50;5.40;99.90
15481;DHT22;7842;50.904;6.670;2022-11-27T07:08:15;5.40;99.90
15481;DHT22;7842;50.904;6.670;2022-11-27T07:10:41;5.40;99.90
15481;DHT22;7842;50.904;6.670;2022-11-27T07:13:06;5.40;99.90
15481;DHT22;7842;50.904;6.670;2022-11-27T07:15:32;5.40;99.90
15481;DHT22;7842;50.904;6.670;2022-11-27T07:17:58;5.50;99.90
15481;DHT22;7842;50.904;6.670;2022-11-27T07:20:23;5.50;99.90
15481;DHT22;7842;50.904;6.670;2022-11-27T07:22:49;5.50;99.90
15481;DHT22;7842;50.904;6.670;2022-11-27T07:25:15;5.50;99.90
15481;DHT22;7842;50.904;6.670;2022-11-27T07:27:40;5.60;99.90
15481;DHT22;7842;50.904;6.670;2022-11-27T07:30:06;5.60;99.90
15481;DHT22;7842;50.904;6.670;2022-11-27T07:32:32;5.60;99.90
15481;DHT22;7842;50.904;6.670;2022-11-27T07:34:57;5.60;99.90
15481;DHT22;7842;50.904;6.670;2022-11-27T07:37:23;5.60;99.90
15481;DHT22;7842;50.904;6.670;2022-11-27T07:39:49;5.60;99.90
15481;DHT22;7842;50.904;6.670;2022-11-27T07:42:15;5.70;99.90
15481;DHT22;7842;50.904;6.670;2022-11-27T07:44:40;5.70;99.90
15481;DHT22;7842;50.904;6.670;2022-11-27T07:47:06;5.70;99.90
15481;DHT22;7842;50.904;6.670;2022-11-27T07:49:31;5.80;99.90
15481;DHT22;7842;50.904;6.670;2022-11-27T07:51:57;5.80;99.90
15481;DHT22;7842;50.904;6.670;2022-11-27T07:54:22;5.80;99.90
15481;DHT22;7842;50.904;6.670;2022-11-27T07:56:48;5.90;99.90
15481;DHT22;7842;50.904;6.670;2022-11-27T07:59:13;5.90;99.90
15481;DHT22;7842;50.904;6.670;2022-11-27T08:01:39;5.90;99.90
15481;DHT22;7842;50.904;6.670;2022-11-27T08:04:04;5.90;99.90
15481;DHT22;7842;50.904;6.670;2022-11-27T08:06:30;6.00;99.90
15481;DHT22;7842;50.904;6.670;2022-11-27T08:08:56;6.00;99.90
15481;DHT22;7842;50.904;6.670;2022-11-27T08:11:27;6.10;99.90
15481;DHT22;7842;50.904;6.670;2022-11-27T08:14:03;6.10;99.90
15481;DHT22;7842;50.904;6.670;2022-11-27T08:16:30;6.10;99.90
15481;DHT22;7842;50.904;6.670;2022-11-27T08:18:56;6.20;99.90
15481;DHT22;7842;50.904;6.670;2022-11-27T08:21:22;6.20;99.90
15481;DHT22;7842;50.904;6.670;2022-11-27T08:23:48;6.30;99.90
15481;DHT22;7842;50.904;6.670;2022-11-27T08:26:14;6.30;99.90
15481;DHT22;7842;50.904;6.670;2022-11-27T08:28:40;6.30;99.90
15481;DHT22;7842;50.904;6.670;2022-11-27T08:31:07;6.40;99.90
15481;DHT22;7842;50.904;6.670;2022-11-27T08:33:34;6.40;99.90
15481;DHT22;7842;50.904;6.670;2022-11-27T08:36:00;6.50;99.90
15481;DHT22;7842;50.904;6.670;2022-11-27T08:38:26;6.50;99.90
15481;DHT22;7842;50.904;6.670;2022-11-27T08:40:59;6.50;99.90
15481;DHT22;7842;50.904;6.670;2022-11-27T08:43:25;6.60;99.90
15481;DHT22;7842;50.904;6.670;2022-11-27T08:45:51;6.60;99.90
15481;DHT22;7842;50.904;6.670;2022-11-27T08:48:18;6.70;99.90
15481;DHT22;7842;50.904;6.670;2022-11-27T08:50:43;6.70;99.90
15481;DHT22;7842;50.904;6.670;2022-11-27T08:53:09;6.80;99.90
15481;DHT22;7842;50.904;6.670;2022-11-27T08:55:35;6.70;99.90
15481;DHT22;7842;50.904;6.670;2022-11-27T08:58:00;6.80;99.90
15481;DHT22;7842;50.904;6.670;2022-11-27T09:00:26;6.80;99.90
15481;DHT22;7842;50.904;6.670;2022-11-27T09:02:52;6.90;99.90
15481;DHT22;7842;50.904;6.670;2022-11-27T09:05:17;6.90;99.90
15481;DHT22;7842;50.904;6.670;2022-11-27T09:07:43;6.90;99.90
15481;DHT22;7842;50.904;6.670;2022-11-27T09:10:09;6.90;99.90
15481;DHT22;7842;50.904;6.670;2022-11-27T09:12:35;6.90;99.90
15481;DHT22;7842;50.904;6.670;2022-11-27T09:15:00;6.90;99.90
15481;DHT22;7842;50.904;6.670;2022-11-27T09:17:26;7.00;99.90
15481;DHT22;7842;50.904;6.670;2022-11-27T09:19:52;7.00;99.90
15481;DHT22;7842;50.904;6.670;2022-11-27T09:22:17;7.10;99.90
15481;DHT22;7842;50.904;6.670;2022-11-27T09:24:43;7.20;99.90
15481;DHT22;7842;50.904;6.670;2022-11-27T09:27:08;7.20;99.90
15481;DHT22;7842;50.904;6.670;2022-11-27T09:29:34;7.40;99.90
15481;DHT22;7842;50.904;6.670;2022-11-27T09:32:00;7.30;99.90
15481;DHT22;7842;50.904;6.670;2022-11-27T09:34:26;7.40;99.90
15481;DHT22;7842;50.904;6.670;2022-11-27T09:36:51;7.40;99.90
15481;DHT22;7842;50.904;6.670;2022-11-27T09:39:17;7.50;99.90
15481;DHT22;7842;50.904;6.670;2022-11-27T09:41:53;7.50;99.90
15481;DHT22;7842;50.904;6.670;2022-11-27T09:47:13;7.60;99.90
15481;DHT22;7842;50.904;6.670;2022-11-27T09:49:43;7.60;99.90
15481;DHT22;7842;50.904;6.670;2022-11-27T09:52:37;7.70;99.90
15481;DHT22;7842;50.904;6.670;2022-11-27T09:55:32;7.70;99.90
15481;DHT22;7842;50.904;6.670;2022-11-27T10:00:38;7.80;99.90
15481;DHT22;7842;50.904;6.670;2022-11-27T10:03:13;7.80;99.90
15481;DHT22;7842;50.904;6.670;2022-11-27T10:05:51;7.90;99.90
15481;DHT22;7842;50.904;6.670;2022-11-27T10:08:42;7.90;99.90
15481;DHT22;7842;50.904;6.670;2022-11-27T10:16:42;8.00;99.90
15481;DHT22;7842;50.904;6.670;2022-11-27T10:21:56;7.90;99.90
15481;DHT22;7842;50.904;6.670;2022-11-27T10:24:30;7.90;99.90
15481;DHT22;7842;50.904;6.670;2022-11-27T10:27:04;7.90;99.90
15481;DHT22;7842;50.904;6.670;2022-11-27T10:29:44;7.90;99.90
15481;DHT22;7842;50.904;6.670;2022-11-27T10:32:27;7.90;99.90
15481;DHT22;7842;50.904;6.670;2022-11-27T10:37:59;7.90;99.90
15481;DHT22;7842;50.904;6.670;2022-11-27T10:40:26;8.00;99.90
15481;DHT22;7842;50.904;6.670;2022-11-27T10:43:23;8.00;99.90
15481;DHT22;7842;50.904;6.670;2022-11-27T10:46:08;8.00;99.90
15481;DHT22;7842;50.904;6.670;2022-11-27T10:48:36;8.00;99.90
15481;DHT22;7842;50.904;6.670;2022-11-27T10:51:02;8.00;99.90
15481;DHT22;7842;50.904;6.670;2022-11-27T10:53:30;8.10;99.90
15481;DHT22;7842;50.904;6.670;2022-11-27T11:01:17;8.10;99.90
15481;DHT22;7842;50.904;6.670;2022-11-27T11:03:43;8.10;99.90
15481;DHT22;7842;50.904;6.670;2022-11-27T11:06:19;8.30;99.90
15481;DHT22;7842;50.904;6.670;2022-11-27T11:08:45;8.10;99.90
15481;DHT22;7842;50.904;6.670;2022-11-27T11:11:11;8.10;99.90
15481;DHT22;7842;50.904;6.670;2022-11-27T11:16:22;8.20;99.90
15481;DHT22;7842;50.904;6.670;2022-11-27T11:18:50;8.20;99.90
15481;DHT22;7842;50.904;6.670;2022-11-27T11:24:00;8.20;99.90
15481;DHT22;7842;50.904;6.670;2022-11-27T11:26:33;8.30;99.90
15481;DHT22;7842;50.904;6.670;2022-11-27T11:29:02;8.30;99.90
15481;DHT22;7842;50.904;6.670;2022-11-27T11:31:36;8.30;99.90
15481;DHT22;7842;50.904;6.670;2022-11-27T11:39:25;8.40;99.90
15481;DHT22;7842;50.904;6.670;2022-11-27T11:41:51;8.40;99.90
15481;DHT22;7842;50.904;6.670;2022-11-27T11:44:23;8.40;99.90
15481;DHT22;7842;50.904;6.670;2022-11-27T11:46:52;8.40;99.90
15481;DHT22;7842;50.904;6.670;2022-11-27T11:49:25;8.50;99.90
15481;DHT22;7842;50.904;6.670;2022-11-27T11:55:16;8.60;99.90
15481;DHT22;7842;50.904;6.670;2022-11-27T12:00:20;8.60;99.90
15481;DHT22;7842;50.904;6.670;2022-11-27T12:03:05;8.70;99.90
15481;DHT22;7842;50.904;6.670;2022-11-27T12:11:25;8.90;99.90
15481;DHT22;7842;50.904;6.670;2022-11-27T12:14:29;9.00;99.90
15481;DHT22;7842;50.904;6.670;2022-11-27T12:22:28;9.10;99.90
15481;DHT22;7842;50.904;6.670;2022-11-27T12:25:16;9.20;99.90
15481;DHT22;7842;50.904;6.670;2022-11-27T12:30:22;9.40;99.90
15481;DHT22;7842;50.904;6.670;2022-11-27T12:35:56;9.50;99.90
15481;DHT22;7842;50.904;6.670;2022-11-27T12:43:48;9.50;99.90
15481;DHT22;7842;50.904;6.670;2022-11-27T12:46:20;9.40;99.90
15481;DHT22;7842;50.904;6.670;2022-11-27T12:48:57;9.40;99.90
15481;DHT22;7842;50.904;6.670;2022-11-27T12:54:02;9.40;99.90
15481;DHT22;7842;50.904;6.670;2022-11-27T12:56:36;9.30;99.90
15481;DHT22;7842;50.904;6.670;2022-11-27T13:04:47;9.30;99.90
15481;DHT22;7842;50.904;6.670;2022-11-27T13:12:43;9.40;99.90
15481;DHT22;7842;50.904;6.670;2022-11-27T13:15:24;9.40;99.90
15481;DHT22;7842;50.904;6.670;2022-11-27T13:17:59;9.30;99.90
15481;DHT22;7842;50.904;6.670;2022-11-27T13:20:34;9.30;99.90
15481;DHT22;7842;50.904;6.670;2022-11-27T13:23:00;9.20;99.90
15481;DHT22;7842;50.904;6.670;2022-11-27T13:25:28;9.20;99.90
15481;DHT22;7842;50.904;6.670;2022-11-27T13:27:56;9.50;99.90
15481;DHT22;7842;50.904;6.670;2022-11-27T13:30:24;9.20;99.90
15481;DHT22;7842;50.904;6.670;2022-11-27T13:32:54;9.20;99.90
15481;DHT22;7842;50.904;6.670;2022-11-27T13:40:41;9.20;99.90
15481;DHT22;7842;50.904;6.670;2022-11-27T13:43:25;9.00;99.90
15481;DHT22;7842;50.904;6.670;2022-11-27T13:46:04;9.00;99.90
15481;DHT22;7842;50.904;6.670;2022-11-27T13:48:37;8.90;99.90
15481;DHT22;7842;50.904;6.670;2022-11-27T13:51:05;8.90;99.90
15481;DHT22;7842;50.904;6.670;2022-11-27T13:53:35;8.90;99.90
15481;DHT22;7842;50.904;6.670;2022-11-27T13:56:03;9.00;99.90
15481;DHT22;7842;50.904;6.670;2022-11-27T13:58:37;8.70;99.90
15481;DHT22;7842;50.904;6.670;2022-11-27T14:01:18;8.60;99.90
15481;DHT22;7842;50.904;6.670;2022-11-27T14:03:46;8.60;99.90
15481;DHT22;7842;50.904;6.670;2022-11-27T14:06:27;8.60;99.90
15481;DHT22;7842;50.904;6.670;2022-11-27T14:08:58;8.50;99.90
15481;DHT22;7842;50.904;6.670;2022-11-27T14:13:59;8.50;99.90
15481;DHT22;7842;50.904;6.670;2022-11-27T14:16:31;8.50;99.90
15481;DHT22;7842;50.904;6.670;2022-11-27T14:19:00;8.60;99.90
15481;DHT22;7842;50.904;6.670;2022-11-27T14:24:03;8.50;99.90
15481;DHT22;7842;50.904;6.670;2022-11-27T14:26:47;8.50;99.90
15481;DHT22;7842;50.904;6.670;2022-11-27T14:29:12;8.50;99.90
15481;DHT22;7842;50.904;6.670;2022-11-27T14:31:38;8.40;99.90
15481;DHT22;7842;50.904;6.670;2022-11-27T14:34:04;8.60;99.90
15481;DHT22;7842;50.904;6.670;2022-11-27T14:36:32;8.40;99.90
15481;DHT22;7842;50.904;6.670;2022-11-27T14:39:03;8.50;99.90
15481;DHT22;7842;50.904;6.670;2022-11-27T14:41:29;8.40;99.90
15481;DHT22;7842;50.904;6.670;2022-11-27T14:44:03;8.30;99.90
15481;DHT22;7842;50.904;6.670;2022-11-27T14:46:31;8.30;99.90
15481;DHT22;7842;50.904;6.670;2022-11-27T14:48:58;8.30;99.90
15481;DHT22;7842;50.904;6.670;2022-11-27T14:51:28;8.30;99.90
15481;DHT22;7842;50.904;6.670;2022-11-27T14:54:04;8.30;99.90
15481;DHT22;7842;50.904;6.670;2022-11-27T14:56:36;8.30;99.90
15481;DHT22;7842;50.904;6.670;2022-11-27T14:59:04;8.30;99.90
15481;DHT22;7842;50.904;6.670;2022-11-27T15:01:35;8.30;99.90
15481;DHT22;7842;50.904;6.670;2022-11-27T15:04:03;8.20;99.90
15481;DHT22;7842;50.904;6.670;2022-11-27T15:06:43;8.30;99.90
15481;DHT22;7842;50.904;6.670;2022-11-27T15:09:20;8.20;99.90
15481;DHT22;7842;50.904;6.670;2022-11-27T15:11:51;8.20;99.90
15481;DHT22;7842;50.904;6.670;2022-11-27T15:14:17;8.40;99.90
15481;DHT22;7842;50.904;6.670;2022-11-27T15:16:45;8.10;99.90
15481;DHT22;7842;50.904;6.670;2022-11-27T15:19:16;8.10;99.90
15481;DHT22;7842;50.904;6.670;2022-11-27T15:21:47;8.10;99.90
15481;DHT22;7842;50.904;6.670;2022-11-27T15:24:33;8.30;99.90
15481;DHT22;7842;50.904;6.670;2022-11-27T15:29:41;8.10;99.90
15481;DHT22;7842;50.904;6.670;2022-11-27T15:32:23;8.10;99.90
15481;DHT22;7842;50.904;6.670;2022-11-27T15:34:50;8.10;99.90
15481;DHT22;7842;50.904;6.670;2022-11-27T15:37:30;8.10;99.90
15481;DHT22;7842;50.904;6.670;2022-11-27T15:39:58;8.00;99.90
15481;DHT22;7842;50.904;6.670;2022-11-27T15:42:26;8.00;99.90
15481;DHT22;7842;50.904;6.670;2022-11-27T15:44:54;8.00;99.90
15481;DHT22;7842;50.904;6.670;2022-11-27T15:47:29;7.90;99.90
15481;DHT22;7842;50.904;6.670;2022-11-27T15:49:58;7.90;99.90
15481;DHT22;7842;50.904;6.670;2022-11-27T15:52:25;7.90;99.90
15481;DHT22;7842;50.904;6.670;2022-11-27T15:54:51;7.90;99.90
15481;DHT22;7842;50.904;6.670;2022-11-27T15:57:17;7.90;99.90
15481;DHT22;7842;50.904;6.670;2022-11-27T15:59:42;7.90;99.90
15481;DHT22;7842;50.904;6.670;2022-11-27T16:02:10;8.00;99.90
15481;DHT22;7842;50.904;6.670;2022-11-27T16:04:35;7.90;99.90
15481;DHT22;7842;50.904;6.670;2022-11-27T16:07:01;7.90;99.90
15481;DHT22;7842;50.904;6.670;2022-11-27T16:09:27;7.90;99.90
15481;DHT22;7842;50.904;6.670;2022-11-27T16:11:53;7.90;99.90
15481;DHT22;7842;50.904;6.670;2022-11-27T16:14:18;7.90;99.90
15481;DHT22;7842;50.904;6.670;2022-11-27T16:16:44;8.10;99.90
15481;DHT22;7842;50.904;6.670;2022-11-27T16:19:09;7.90;99.90
15481;DHT22;7842;50.904;6.670;2022-11-27T16:21:37;7.80;99.90
15481;DHT22;7842;50.904;6.670;2022-11-27T16:24:07;8.10;99.90
15481;DHT22;7842;50.904;6.670;2022-11-27T16:26:33;7.80;99.90
15481;DHT22;7842;50.904;6.670;2022-11-27T16:29:01;7.70;99.90
15481;DHT22;7842;50.904;6.670;2022-11-27T16:31:32;7.70;99.90
15481;DHT22;7842;50.904;6.670;2022-11-27T16:33:58;7.70;99.90
15481;DHT22;7842;50.904;6.670;2022-11-27T16:36:26;7.70;99.90
15481;DHT22;7842;50.904;6.670;2022-11-27T16:38:53;7.70;99.90
15481;DHT22;7842;50.904;6.670;2022-11-27T16:41:19;7.70;99.90
15481;DHT22;7842;50.904;6.670;2022-11-27T16:43:47;7.70;99.90
15481;DHT22;7842;50.904;6.670;2022-11-27T16:46:19;7.70;99.90
15481;DHT22;7842;50.904;6.670;2022-11-27T16:48:46;7.70;99.90
15481;DHT22;7842;50.904;6.670;2022-11-27T16:51:15;7.70;99.90
15481;DHT22;7842;50.904;6.670;2022-11-27T16:53:43;7.70;99.90
15481;DHT22;7842;50.904;6.670;2022-11-27T16:56:10;7.70;99.90
15481;DHT22;7842;50.904;6.670;2022-11-27T16:58:38;7.70;99.90
15481;DHT22;7842;50.904;6.670;2022-11-27T17:01:08;7.60;99.90
15481;DHT22;7842;50.904;6.670;2022-11-27T17:03:34;7.70;99.90
15481;DHT22;7842;50.904;6.670;2022-11-27T17:06:00;7.60;99.90
15481;DHT22;7842;50.904;6.670;2022-11-27T17:08:26;7.50;99.90
15481;DHT22;7842;50.904;6.670;2022-11-27T17:10:52;7.50;99.90
15481;DHT22;7842;50.904;6.670;2022-11-27T17:13:17;7.50;99.90
15481;DHT22;7842;50.904;6.670;2022-11-27T17:15:43;7.50;99.90
15481;DHT22;7842;50.904;6.670;2022-11-27T17:18:09;7.50;99.90
15481;DHT22;7842;50.904;6.670;2022-11-27T17:20:35;7.50;99.90
15481;DHT22;7842;50.904;6.670;2022-11-27T17:23:01;7.50;99.90
15481;DHT22;7842;50.904;6.670;2022-11-27T17:25:28;7.50;99.90
15481;DHT22;7842;50.904;6.670;2022-11-27T17:27:54;7.50;99.90
15481;DHT22;7842;50.904;6.670;2022-11-27T17:30:20;7.50;99.90
15481;DHT22;7842;50.904;6.670;2022-11-27T17:32:45;7.50;99.90
15481;DHT22;7842;50.904;6.670;2022-11-27T17:35:11;7.50;99.90
15481;DHT22;7842;50.904;6.670;2022-11-27T17:37:37;7.50;99.90
15481;DHT22;7842;50.904;6.670;2022-11-27T17:40:03;7.50;99.90
15481;DHT22;7842;50.904;6.670;2022-11-27T17:42:28;7.50;99.90
15481;DHT22;7842;50.904;6.670;2022-11-27T17:44:54;7.50;99.90
15481;DHT22;7842;50.904;6.670;2022-11-27T17:47:20;7.50;99.90
15481;DHT22;7842;50.904;6.670;2022-11-27T17:49:46;7.50;99.90
15481;DHT22;7842;50.904;6.670;2022-11-27T17:52:11;7.50;99.90
15481;DHT22;7842;50.904;6.670;2022-11-27T17:54:37;7.50;99.90
15481;DHT22;7842;50.904;6.670;2022-11-27T17:57:03;7.50;99.90
15481;DHT22;7842;50.904;6.670;2022-11-27T17:59:28;7.40;99.90
15481;DHT22;7842;50.904;6.670;2022-11-27T18:01:54;7.40;99.90
15481;DHT22;7842;50.904;6.670;2022-11-27T18:04:20;7.40;99.90
15481;DHT22;7842;50.904;6.670;2022-11-27T18:06:45;7.40;99.90
15481;DHT22;7842;50.904;6.670;2022-11-27T18:09:11;7.40;99.90